sensor_id;sensor_type;location;lat;lon;timestamp;P1;durP1;ratioP1;P2;durP2;ratioP2
6093;SDS011;19964;42.060;24.700;2022-11-15T00:01:14;25.53;;;17.10;;
6093;SDS011;19964;42.060;24.700;2022-11-15T00:03:43;25.63;;;17.03;;
6093;SDS011;19964;42.060;24.700;2022-11-15T00:06:14;23.47;;;16.10;;
6093;SDS011;19964;42.060;24.700;2022-11-15T00:08:41;25.03;;;16.83;;
6093;SDS011;19964;42.060;24.700;2022-11-15T00:11:09;24.17;;;15.63;;
6093;SDS011;19964;42.060;24.700;2022-11-15T00:13:38;25.23;;;16.80;;
6093;SDS011;19964;42.060;24.700;2022-11-15T00:16:05;24.57;;;16.27;;
6093;SDS011;19964;42.060;24.700;2022-11-15T00:18:32;23.97;;;15.57;;
6093;SDS011;19964;42.060;24.700;2022-11-15T00:21:03;22.90;;;15.97;;
6093;SDS011;19964;42.060;24.700;2022-11-15T00:23:32;26.17;;;15.70;;
6093;SDS011;19964;42.060;24.700;2022-11-15T00:26:00;21.83;;;14.77;;
6093;SDS011;19964;42.060;24.700;2022-11-15T00:28:26;24.07;;;15.47;;
6093;SDS011;19964;42.060;24.700;2022-11-15T00:30:53;24.70;;;15.97;;
6093;SDS011;19964;42.060;24.700;2022-11-15T00:33:25;22.30;;;15.07;;
6093;SDS011;19964;42.060;24.700;2022-11-15T00:35:52;26.13;;;16.43;;
6093;SDS011;19964;42.060;24.700;2022-11-15T00:38:19;24.43;;;15.47;;
6093;SDS011;19964;42.060;24.700;2022-11-15T00:40:48;25.80;;;15.63;;
6093;SDS011;19964;42.060;24.700;2022-11-15T00:43:14;28.17;;;16.03;;
6093;SDS011;19964;42.060;24.700;2022-11-15T00:45:41;23.63;;;16.13;;
6093;SDS011;19964;42.060;24.700;2022-11-15T00:48:09;26.67;;;15.83;;
6093;SDS011;19964;42.060;24.700;2022-11-15T00:50:36;24.73;;;15.73;;
6093;SDS011;19964;42.060;24.700;2022-11-15T00:53:03;21.83;;;15.97;;
6093;SDS011;19964;42.060;24.700;2022-11-15T00:55:30;26.33;;;16.07;;
6093;SDS011;19964;42.060;24.700;2022-11-15T00:57:58;25.70;;;15.37;;
6093;SDS011;19964;42.060;24.700;2022-11-15T01:00:25;25.53;;;16.67;;
6093;SDS011;19964;42.060;24.700;2022-11-15T01:02:52;24.70;;;15.23;;
6093;SDS011;19964;42.060;24.700;2022-11-15T01:05:19;22.93;;;15.47;;
6093;SDS011;19964;42.060;24.700;2022-11-15T01:07:46;24.57;;;15.33;;
6093;SDS011;19964;42.060;24.700;2022-11-15T01:10:12;27.97;;;16.17;;
6093;SDS011;19964;42.060;24.700;2022-11-15T01:12:39;23.77;;;15.33;;
6093;SDS011;19964;42.060;24.700;2022-11-15T01:15:08;25.07;;;15.77;;
6093;SDS011;19964;42.060;24.700;2022-11-15T01:17:35;24.73;;;16.13;;
6093;SDS011;19964;42.060;24.700;2022-11-15T01:20:06;25.50;;;16.53;;
6093;SDS011;19964;42.060;24.700;2022-11-15T01:22:33;27.87;;;16.83;;
6093;SDS011;19964;42.060;24.700;2022-11-15T01:25:01;27.80;;;17.93;;
6093;SDS011;19964;42.060;24.700;2022-11-15T01:27:28;29.33;;;17.33;;
6093;SDS011;19964;42.060;24.700;2022-11-15T01:29:55;33.47;;;19.67;;
6093;SDS011;19964;42.060;24.700;2022-11-15T01:32:23;26.03;;;16.70;;
6093;SDS011;19964;42.060;24.700;2022-11-15T01:34:50;29.57;;;17.93;;
6093;SDS011;19964;42.060;24.700;2022-11-15T01:37:17;33.13;;;18.73;;
6093;SDS011;19964;42.060;24.700;2022-11-15T01:39:44;32.47;;;19.53;;
6093;SDS011;19964;42.060;24.700;2022-11-15T01:42:11;30.83;;;18.37;;
6093;SDS011;19964;42.060;24.700;2022-11-15T01:44:43;30.70;;;18.57;;
6093;SDS011;19964;42.060;24.700;2022-11-15T01:47:13;31.60;;;20.27;;
6093;SDS011;19964;42.060;24.700;2022-11-15T01:49:45;32.70;;;19.03;;
6093;SDS011;19964;42.060;24.700;2022-11-15T01:52:18;39.47;;;20.00;;
6093;SDS011;19964;42.060;24.700;2022-11-15T01:54:47;30.70;;;20.47;;
6093;SDS011;19964;42.060;24.700;2022-11-15T01:57:17;36.33;;;19.80;;
6093;SDS011;19964;42.060;24.700;2022-11-15T01:59:44;32.57;;;20.00;;
6093;SDS011;19964;42.060;24.700;2022-11-15T02:02:12;35.67;;;20.67;;
6093;SDS011;19964;42.060;24.700;2022-11-15T02:04:40;34.93;;;19.70;;
6093;SDS011;19964;42.060;24.700;2022-11-15T02:07:10;36.57;;;20.33;;
6093;SDS011;19964;42.060;24.700;2022-11-15T02:09:38;34.67;;;20.33;;
6093;SDS011;19964;42.060;24.700;2022-11-15T02:12:06;32.43;;;20.60;;
6093;SDS011;19964;42.060;24.700;2022-11-15T02:14:36;35.07;;;20.10;;
6093;SDS011;19964;42.060;24.700;2022-11-15T02:17:13;31.73;;;20.63;;
6093;SDS011;19964;42.060;24.700;2022-11-15T02:20:05;33.53;;;19.87;;
6093;SDS011;19964;42.060;24.700;2022-11-15T02:22:56;34.03;;;19.77;;
6093;SDS011;19964;42.060;24.700;2022-11-15T02:25:40;36.13;;;20.30;;
6093;SDS011;19964;42.060;24.700;2022-11-15T02:31:17;32.50;;;19.63;;
6093;SDS011;19964;42.060;24.700;2022-11-15T02:33:53;31.67;;;19.17;;
6093;SDS011;19964;42.060;24.700;2022-11-15T02:36:29;31.50;;;19.50;;
6093;SDS011;19964;42.060;24.700;2022-11-15T02:39:04;34.27;;;20.43;;
6093;SDS011;19964;42.060;24.700;2022-11-15T02:41:39;33.17;;;18.97;;
6093;SDS011;19964;42.060;24.700;2022-11-15T02:44:14;33.33;;;19.87;;
6093;SDS011;19964;42.060;24.700;2022-11-15T02:46:48;32.17;;;19.33;;
6093;SDS011;19964;42.060;24.700;2022-11-15T02:49:36;34.13;;;20.10;;
6093;SDS011;19964;42.060;24.700;2022-11-15T02:52:05;29.47;;;18.93;;
6093;SDS011;19964;42.060;24.700;2022-11-15T02:54:33;26.80;;;18.67;;
6093;SDS011;19964;42.060;24.700;2022-11-15T02:57:01;33.17;;;20.00;;
6093;SDS011;19964;42.060;24.700;2022-11-15T03:05:25;26.53;;;17.70;;
6093;SDS011;19964;42.060;24.700;2022-11-15T03:08:02;30.83;;;18.87;;
6093;SDS011;19964;42.060;24.700;2022-11-15T03:10:36;27.67;;;17.43;;
6093;SDS011;19964;42.060;24.700;2022-11-15T03:13:16;28.97;;;18.60;;
6093;SDS011;19964;42.060;24.700;2022-11-15T03:15:50;27.90;;;17.70;;
6093;SDS011;19964;42.060;24.700;2022-11-15T03:18:26;23.33;;;17.20;;
6093;SDS011;19964;42.060;24.700;2022-11-15T03:20:58;27.00;;;17.80;;
6093;SDS011;19964;42.060;24.700;2022-11-15T03:23:30;30.07;;;17.43;;
6093;SDS011;19964;42.060;24.700;2022-11-15T03:25:58;27.40;;;17.40;;
6093;SDS011;19964;42.060;24.700;2022-11-15T03:28:28;30.23;;;18.20;;
6093;SDS011;19964;42.060;24.700;2022-11-15T03:31:02;27.73;;;18.10;;
6093;SDS011;19964;42.060;24.700;2022-11-15T03:33:53;26.60;;;17.47;;
6093;SDS011;19964;42.060;24.700;2022-11-15T03:36:23;31.10;;;17.43;;
6093;SDS011;19964;42.060;24.700;2022-11-15T03:38:52;32.17;;;18.10;;
6093;SDS011;19964;42.060;24.700;2022-11-15T03:41:23;25.97;;;16.60;;
6093;SDS011;19964;42.060;24.700;2022-11-15T03:43:55;26.33;;;17.13;;
6093;SDS011;19964;42.060;24.700;2022-11-15T03:46:31;27.70;;;17.47;;
6093;SDS011;19964;42.060;24.700;2022-11-15T03:49:04;32.00;;;19.00;;
6093;SDS011;19964;42.060;24.700;2022-11-15T03:51:34;32.13;;;18.20;;
6093;SDS011;19964;42.060;24.700;2022-11-15T03:54:02;30.87;;;18.63;;
6093;SDS011;19964;42.060;24.700;2022-11-15T03:56:29;29.47;;;18.30;;
6093;SDS011;19964;42.060;24.700;2022-11-15T03:58:56;30.83;;;18.27;;
6093;SDS011;19964;42.060;24.700;2022-11-15T04:01:23;29.90;;;18.67;;
6093;SDS011;19964;42.060;24.700;2022-11-15T04:03:50;32.00;;;18.87;;
6093;SDS011;19964;42.060;24.700;2022-11-15T04:06:19;30.50;;;19.13;;
6093;SDS011;19964;42.060;24.700;2022-11-15T04:08:45;32.43;;;19.50;;
6093;SDS011;19964;42.060;24.700;2022-11-15T04:11:12;32.33;;;19.70;;
6093;SDS011;19964;42.060;24.700;2022-11-15T04:13:39;36.77;;;19.10;;
6093;SDS011;19964;42.060;24.700;2022-11-15T04:16:06;31.33;;;19.20;;
6093;SDS011;19964;42.060;24.700;2022-11-15T04:18:33;32.47;;;17.97;;
6093;SDS011;19964;42.060;24.700;2022-11-15T04:21:00;30.37;;;18.70;;
6093;SDS011;19964;42.060;24.700;2022-11-15T04:23:45;29.93;;;18.10;;
6093;SDS011;19964;42.060;24.700;2022-11-15T04:26:30;26.37;;;17.50;;
6093;SDS011;19964;42.060;24.700;2022-11-15T04:28:57;30.40;;;17.63;;
6093;SDS011;19964;42.060;24.700;2022-11-15T04:31:41;26.93;;;17.30;;
6093;SDS011;19964;42.060;24.700;2022-11-15T04:34:08;26.30;;;16.33;;
6093;SDS011;19964;42.060;24.700;2022-11-15T04:36:35;29.60;;;18.10;;
6093;SDS011;19964;42.060;24.700;2022-11-15T04:39:20;31.53;;;17.67;;
6093;SDS011;19964;42.060;24.700;2022-11-15T04:41:47;28.00;;;17.60;;
6093;SDS011;19964;42.060;24.700;2022-11-15T04:44:14;26.70;;;16.63;;
6093;SDS011;19964;42.060;24.700;2022-11-15T04:46:41;25.67;;;16.47;;
6093;SDS011;19964;42.060;24.700;2022-11-15T04:49:08;28.10;;;17.23;;
6093;SDS011;19964;42.060;24.700;2022-11-15T04:51:35;28.57;;;16.97;;
6093;SDS011;19964;42.060;24.700;2022-11-15T04:54:02;28.47;;;17.50;;
6093;SDS011;19964;42.060;24.700;2022-11-15T04:56:30;28.40;;;18.23;;
6093;SDS011;19964;42.060;24.700;2022-11-15T04:58:57;27.17;;;17.17;;
6093;SDS011;19964;42.060;24.700;2022-11-15T05:01:24;29.60;;;17.30;;
6093;SDS011;19964;42.060;24.700;2022-11-15T05:03:51;27.83;;;16.70;;
6093;SDS011;19964;42.060;24.700;2022-11-15T05:06:35;30.30;;;17.67;;
6093;SDS011;19964;42.060;24.700;2022-11-15T05:09:02;26.57;;;17.20;;
6093;SDS011;19964;42.060;24.700;2022-11-15T05:11:30;30.77;;;17.60;;
6093;SDS011;19964;42.060;24.700;2022-11-15T05:13:57;27.50;;;17.40;;
6093;SDS011;19964;42.060;24.700;2022-11-15T05:16:24;28.50;;;17.97;;
6093;SDS011;19964;42.060;24.700;2022-11-15T05:18:51;25.50;;;17.07;;
6093;SDS011;19964;42.060;24.700;2022-11-15T05:21:19;28.13;;;17.03;;
6093;SDS011;19964;42.060;24.700;2022-11-15T05:23:49;29.17;;;17.00;;
6093;SDS011;19964;42.060;24.700;2022-11-15T05:26:16;35.43;;;18.40;;
6093;SDS011;19964;42.060;24.700;2022-11-15T05:28:46;27.33;;;17.97;;
6093;SDS011;19964;42.060;24.700;2022-11-15T05:31:13;27.63;;;18.23;;
6093;SDS011;19964;42.060;24.700;2022-11-15T05:33:41;32.70;;;17.93;;
6093;SDS011;19964;42.060;24.700;2022-11-15T05:36:11;27.73;;;17.00;;
6093;SDS011;19964;42.060;24.700;2022-11-15T05:38:43;29.47;;;18.30;;
6093;SDS011;19964;42.060;24.700;2022-11-15T05:41:10;29.90;;;18.43;;
6093;SDS011;19964;42.060;24.700;2022-11-15T05:43:39;28.23;;;18.07;;
6093;SDS011;19964;42.060;24.700;2022-11-15T05:46:09;28.17;;;18.03;;
6093;SDS011;19964;42.060;24.700;2022-11-15T05:48:36;29.33;;;18.63;;
6093;SDS011;19964;42.060;24.700;2022-11-15T05:51:06;28.57;;;18.60;;
6093;SDS011;19964;42.060;24.700;2022-11-15T05:53:34;30.87;;;18.17;;
6093;SDS011;19964;42.060;24.700;2022-11-15T05:56:02;26.23;;;17.43;;
6093;SDS011;19964;42.060;24.700;2022-11-15T05:58:30;28.00;;;18.30;;
6093;SDS011;19964;42.060;24.700;2022-11-15T06:00:58;26.27;;;17.47;;
6093;SDS011;19964;42.060;24.700;2022-11-15T06:03:27;25.87;;;17.60;;
6093;SDS011;19964;42.060;24.700;2022-11-15T06:05:54;26.20;;;17.33;;
6093;SDS011;19964;42.060;24.700;2022-11-15T06:08:21;26.53;;;17.70;;
6093;SDS011;19964;42.060;24.700;2022-11-15T06:10:48;27.63;;;16.57;;
6093;SDS011;19964;42.060;24.700;2022-11-15T06:13:15;26.07;;;16.97;;
6093;SDS011;19964;42.060;24.700;2022-11-15T06:15:41;26.73;;;16.90;;
6093;SDS011;19964;42.060;24.700;2022-11-15T06:18:08;24.57;;;16.50;;
6093;SDS011;19964;42.060;24.700;2022-11-15T06:20:37;23.53;;;16.07;;
6093;SDS011;19964;42.060;24.700;2022-11-15T06:23:04;25.40;;;16.50;;
6093;SDS011;19964;42.060;24.700;2022-11-15T06:25:31;19.37;;;14.67;;
6093;SDS011;19964;42.060;24.700;2022-11-15T06:27:58;18.63;;;14.23;;
6093;SDS011;19964;42.060;24.700;2022-11-15T06:30:26;20.17;;;14.33;;
6093;SDS011;19964;42.060;24.700;2022-11-15T06:32:58;20.07;;;14.47;;
6093;SDS011;19964;42.060;24.700;2022-11-15T06:35:26;16.60;;;12.97;;
6093;SDS011;19964;42.060;24.700;2022-11-15T06:37:55;15.90;;;13.10;;
6093;SDS011;19964;42.060;24.700;2022-11-15T06:40:22;16.33;;;12.73;;
6093;SDS011;19964;42.060;24.700;2022-11-15T06:42:49;19.80;;;13.23;;
6093;SDS011;19964;42.060;24.700;2022-11-15T06:45:16;17.27;;;13.57;;
6093;SDS011;19964;42.060;24.700;2022-11-15T06:47:44;19.90;;;13.53;;
6093;SDS011;19964;42.060;24.700;2022-11-15T06:50:11;18.60;;;13.63;;
6093;SDS011;19964;42.060;24.700;2022-11-15T06:52:38;18.53;;;13.20;;
6093;SDS011;19964;42.060;24.700;2022-11-15T06:55:08;19.07;;;13.30;;
6093;SDS011;19964;42.060;24.700;2022-11-15T06:57:35;16.17;;;13.13;;
6093;SDS011;19964;42.060;24.700;2022-11-15T07:00:03;19.90;;;14.13;;
6093;SDS011;19964;42.060;24.700;2022-11-15T07:02:30;18.70;;;14.13;;
6093;SDS011;19964;42.060;24.700;2022-11-15T07:04:57;16.60;;;12.87;;
6093;SDS011;19964;42.060;24.700;2022-11-15T07:07:24;17.70;;;13.47;;
6093;SDS011;19964;42.060;24.700;2022-11-15T07:09:54;19.03;;;13.60;;
6093;SDS011;19964;42.060;24.700;2022-11-15T07:12:22;16.10;;;12.87;;
6093;SDS011;19964;42.060;24.700;2022-11-15T07:14:49;14.83;;;12.57;;
6093;SDS011;19964;42.060;24.700;2022-11-15T07:17:16;16.83;;;13.30;;
6093;SDS011;19964;42.060;24.700;2022-11-15T07:19:42;16.57;;;12.30;;
6093;SDS011;19964;42.060;24.700;2022-11-15T07:22:09;42.53;;;26.83;;
6093;SDS011;19964;42.060;24.700;2022-11-15T07:24:36;41.87;;;26.37;;
6093;SDS011;19964;42.060;24.700;2022-11-15T07:27:03;44.33;;;25.90;;
6093;SDS011;19964;42.060;24.700;2022-11-15T07:29:31;33.50;;;21.27;;
6093;SDS011;19964;42.060;24.700;2022-11-15T07:31:58;40.27;;;23.67;;
6093;SDS011;19964;42.060;24.700;2022-11-15T07:34:25;35.40;;;24.07;;
6093;SDS011;19964;42.060;24.700;2022-11-15T07:36:52;31.93;;;20.97;;
6093;SDS011;19964;42.060;24.700;2022-11-15T07:39:18;29.77;;;19.77;;
6093;SDS011;19964;42.060;24.700;2022-11-15T07:41:45;33.07;;;23.17;;
6093;SDS011;19964;42.060;24.700;2022-11-15T07:44:14;38.13;;;25.93;;
6093;SDS011;19964;42.060;24.700;2022-11-15T07:46:42;39.63;;;26.60;;
6093;SDS011;19964;42.060;24.700;2022-11-15T07:49:09;40.33;;;26.30;;
6093;SDS011;19964;42.060;24.700;2022-11-15T07:51:36;46.17;;;30.80;;
6093;SDS011;19964;42.060;24.700;2022-11-15T07:54:03;52.13;;;31.83;;
6093;SDS011;19964;42.060;24.700;2022-11-15T07:56:30;52.27;;;34.00;;
6093;SDS011;19964;42.060;24.700;2022-11-15T07:58:57;52.37;;;36.97;;
6093;SDS011;19964;42.060;24.700;2022-11-15T08:01:24;57.10;;;35.70;;
6093;SDS011;19964;42.060;24.700;2022-11-15T08:03:52;52.17;;;36.23;;
6093;SDS011;19964;42.060;24.700;2022-11-15T08:06:19;49.07;;;33.50;;
6093;SDS011;19964;42.060;24.700;2022-11-15T08:08:46;54.03;;;32.17;;
6093;SDS011;19964;42.060;24.700;2022-11-15T08:11:16;41.57;;;28.20;;
6093;SDS011;19964;42.060;24.700;2022-11-15T08:13:43;40.50;;;26.97;;
6093;SDS011;19964;42.060;24.700;2022-11-15T08:16:10;39.17;;;27.97;;
6093;SDS011;19964;42.060;24.700;2022-11-15T08:18:37;33.07;;;23.43;;
6093;SDS011;19964;42.060;24.700;2022-11-15T08:21:05;31.13;;;21.50;;
6093;SDS011;19964;42.060;24.700;2022-11-15T08:23:32;32.63;;;22.30;;
6093;SDS011;19964;42.060;24.700;2022-11-15T08:25:59;30.90;;;22.37;;
6093;SDS011;19964;42.060;24.700;2022-11-15T08:28:28;34.43;;;23.23;;
6093;SDS011;19964;42.060;24.700;2022-11-15T08:30:55;30.90;;;21.17;;
6093;SDS011;19964;42.060;24.700;2022-11-15T08:33:22;32.13;;;22.80;;
6093;SDS011;19964;42.060;24.700;2022-11-15T08:35:49;34.57;;;24.20;;
6093;SDS011;19964;42.060;24.700;2022-11-15T08:38:17;33.67;;;23.63;;
6093;SDS011;19964;42.060;24.700;2022-11-15T08:40:44;34.17;;;23.80;;
6093;SDS011;19964;42.060;24.700;2022-11-15T08:43:11;33.13;;;23.63;;
6093;SDS011;19964;42.060;24.700;2022-11-15T08:45:38;38.53;;;24.00;;
6093;SDS011;19964;42.060;24.700;2022-11-15T08:48:05;32.97;;;23.50;;
6093;SDS011;19964;42.060;24.700;2022-11-15T08:50:32;35.87;;;24.30;;
6093;SDS011;19964;42.060;24.700;2022-11-15T08:53:03;34.50;;;23.80;;
6093;SDS011;19964;42.060;24.700;2022-11-15T08:55:37;31.07;;;22.03;;
6093;SDS011;19964;42.060;24.700;2022-11-15T08:58:04;30.43;;;21.83;;
6093;SDS011;19964;42.060;24.700;2022-11-15T09:00:32;34.40;;;23.23;;
6093;SDS011;19964;42.060;24.700;2022-11-15T09:02:59;37.80;;;23.73;;
6093;SDS011;19964;42.060;24.700;2022-11-15T09:05:29;38.43;;;23.50;;
6093;SDS011;19964;42.060;24.700;2022-11-15T09:07:56;35.30;;;23.17;;
6093;SDS011;19964;42.060;24.700;2022-11-15T09:10:23;33.47;;;22.30;;
6093;SDS011;19964;42.060;24.700;2022-11-15T09:12:56;39.67;;;25.83;;
6093;SDS011;19964;42.060;24.700;2022-11-15T09:15:27;32.53;;;22.43;;
6093;SDS011;19964;42.060;24.700;2022-11-15T09:17:54;40.03;;;24.67;;
6093;SDS011;19964;42.060;24.700;2022-11-15T09:20:24;49.03;;;30.40;;
6093;SDS011;19964;42.060;24.700;2022-11-15T09:22:51;58.57;;;33.80;;
6093;SDS011;19964;42.060;24.700;2022-11-15T09:25:18;42.20;;;27.30;;
6093;SDS011;19964;42.060;24.700;2022-11-15T09:27:45;33.87;;;23.87;;
6093;SDS011;19964;42.060;24.700;2022-11-15T09:30:13;36.33;;;24.10;;
6093;SDS011;19964;42.060;24.700;2022-11-15T09:32:40;36.47;;;24.70;;
6093;SDS011;19964;42.060;24.700;2022-11-15T09:35:07;34.97;;;23.17;;
6093;SDS011;19964;42.060;24.700;2022-11-15T09:37:34;35.10;;;23.17;;
6093;SDS011;19964;42.060;24.700;2022-11-15T09:40:01;36.67;;;24.03;;
6093;SDS011;19964;42.060;24.700;2022-11-15T09:42:32;32.40;;;23.07;;
6093;SDS011;19964;42.060;24.700;2022-11-15T09:45:17;34.43;;;22.87;;
6093;SDS011;19964;42.060;24.700;2022-11-15T09:48:01;38.43;;;23.73;;
6093;SDS011;19964;42.060;24.700;2022-11-15T09:50:39;31.93;;;23.70;;
6093;SDS011;19964;42.060;24.700;2022-11-15T09:53:16;35.23;;;23.27;;
6093;SDS011;19964;42.060;24.700;2022-11-15T09:55:54;37.90;;;23.07;;
6093;SDS011;19964;42.060;24.700;2022-11-15T09:58:26;34.17;;;23.87;;
6093;SDS011;19964;42.060;24.700;2022-11-15T10:01:06;37.63;;;25.67;;
6093;SDS011;19964;42.060;24.700;2022-11-15T10:03:38;43.87;;;25.83;;
6093;SDS011;19964;42.060;24.700;2022-11-15T10:06:10;36.50;;;24.50;;
6093;SDS011;19964;42.060;24.700;2022-11-15T10:08:49;34.00;;;23.13;;
6093;SDS011;19964;42.060;24.700;2022-11-15T10:11:20;37.80;;;24.10;;
6093;SDS011;19964;42.060;24.700;2022-11-15T10:13:53;36.93;;;24.43;;
6093;SDS011;19964;42.060;24.700;2022-11-15T10:16:29;37.13;;;24.00;;
6093;SDS011;19964;42.060;24.700;2022-11-15T10:19:26;39.30;;;25.33;;
6093;SDS011;19964;42.060;24.700;2022-11-15T10:22:01;36.73;;;23.83;;
6093;SDS011;19964;42.060;24.700;2022-11-15T10:24:41;32.90;;;23.07;;
6093;SDS011;19964;42.060;24.700;2022-11-15T10:27:11;36.43;;;25.10;;
6093;SDS011;19964;42.060;24.700;2022-11-15T10:29:43;33.10;;;23.30;;
6093;SDS011;19964;42.060;24.700;2022-11-15T10:32:14;34.07;;;24.03;;
6093;SDS011;19964;42.060;24.700;2022-11-15T10:34:43;32.57;;;24.10;;
6093;SDS011;19964;42.060;24.700;2022-11-15T10:37:10;36.87;;;24.10;;
6093;SDS011;19964;42.060;24.700;2022-11-15T10:39:37;35.87;;;24.07;;
6093;SDS011;19964;42.060;24.700;2022-11-15T10:42:17;34.00;;;24.17;;
6093;SDS011;19964;42.060;24.700;2022-11-15T10:44:52;33.63;;;22.60;;
6093;SDS011;19964;42.060;24.700;2022-11-15T10:47:24;25.17;;;18.57;;
6093;SDS011;19964;42.060;24.700;2022-11-15T10:49:58;32.73;;;23.57;;
6093;SDS011;19964;42.060;24.700;2022-11-15T10:52:26;146.23;;;60.23;;
6093;SDS011;19964;42.060;24.700;2022-11-15T10:54:56;50.17;;;29.77;;
6093;SDS011;19964;42.060;24.700;2022-11-15T10:57:28;41.20;;;25.40;;
6093;SDS011;19964;42.060;24.700;2022-11-15T10:59:59;36.43;;;24.57;;
6093;SDS011;19964;42.060;24.700;2022-11-15T11:02:31;35.77;;;25.53;;
6093;SDS011;19964;42.060;24.700;2022-11-15T11:05:00;34.30;;;24.37;;
6093;SDS011;19964;42.060;24.700;2022-11-15T11:07:30;32.90;;;23.13;;
6093;SDS011;19964;42.060;24.700;2022-11-15T11:10:02;33.83;;;23.37;;
6093;SDS011;19964;42.060;24.700;2022-11-15T11:12:34;36.93;;;24.53;;
6093;SDS011;19964;42.060;24.700;2022-11-15T11:15:05;33.33;;;23.27;;
6093;SDS011;19964;42.060;24.700;2022-11-15T11:17:45;38.00;;;24.17;;
6093;SDS011;19964;42.060;24.700;2022-11-15T11:20:25;35.83;;;22.63;;
6093;SDS011;19964;42.060;24.700;2022-11-15T11:23:04;33.37;;;22.40;;
6093;SDS011;19964;42.060;24.700;2022-11-15T11:25:48;35.70;;;22.93;;
6093;SDS011;19964;42.060;24.700;2022-11-15T11:28:30;33.43;;;23.17;;
6093;SDS011;19964;42.060;24.700;2022-11-15T11:31:20;32.93;;;23.30;;
6093;SDS011;19964;42.060;24.700;2022-11-15T11:33:57;36.47;;;23.17;;
6093;SDS011;19964;42.060;24.700;2022-11-15T11:36:33;39.17;;;23.60;;
6093;SDS011;19964;42.060;24.700;2022-11-15T11:39:11;32.77;;;23.50;;
6093;SDS011;19964;42.060;24.700;2022-11-15T11:41:52;34.43;;;23.23;;
6093;SDS011;19964;42.060;24.700;2022-11-15T11:44:37;34.57;;;23.63;;
6093;SDS011;19964;42.060;24.700;2022-11-15T11:47:18;37.53;;;24.50;;
6093;SDS011;19964;42.060;24.700;2022-11-15T11:49:51;33.23;;;23.90;;
6093;SDS011;19964;42.060;24.700;2022-11-15T11:52:22;38.70;;;24.40;;
6093;SDS011;19964;42.060;24.700;2022-11-15T11:54:55;36.13;;;23.93;;
6093;SDS011;19964;42.060;24.700;2022-11-15T11:57:30;37.40;;;24.37;;
6093;SDS011;19964;42.060;24.700;2022-11-15T12:00:12;40.50;;;25.00;;
6093;SDS011;19964;42.060;24.700;2022-11-15T12:02:44;39.37;;;26.07;;
6093;SDS011;19964;42.060;24.700;2022-11-15T12:05:19;39.37;;;25.13;;
6093;SDS011;19964;42.060;24.700;2022-11-15T12:07:49;35.50;;;25.50;;
6093;SDS011;19964;42.060;24.700;2022-11-15T12:10:21;39.13;;;26.20;;
6093;SDS011;19964;42.060;24.700;2022-11-15T12:12:52;42.87;;;25.37;;
6093;SDS011;19964;42.060;24.700;2022-11-15T12:15:25;34.57;;;23.50;;
6093;SDS011;19964;42.060;24.700;2022-11-15T12:17:56;38.50;;;24.70;;
6093;SDS011;19964;42.060;24.700;2022-11-15T12:20:29;38.67;;;25.03;;
6093;SDS011;19964;42.060;24.700;2022-11-15T12:23:01;36.50;;;24.83;;
6093;SDS011;19964;42.060;24.700;2022-11-15T12:25:33;33.97;;;23.93;;
6093;SDS011;19964;42.060;24.700;2022-11-15T12:28:12;39.03;;;25.63;;
6093;SDS011;19964;42.060;24.700;2022-11-15T12:30:45;39.50;;;25.10;;
6093;SDS011;19964;42.060;24.700;2022-11-15T12:33:29;45.03;;;26.90;;
6093;SDS011;19964;42.060;24.700;2022-11-15T12:36:00;40.97;;;26.23;;
6093;SDS011;19964;42.060;24.700;2022-11-15T12:38:52;43.03;;;25.77;;
6093;SDS011;19964;42.060;24.700;2022-11-15T12:41:21;38.77;;;25.87;;
6093;SDS011;19964;42.060;24.700;2022-11-15T12:43:49;36.47;;;26.27;;
6093;SDS011;19964;42.060;24.700;2022-11-15T12:46:24;38.07;;;26.03;;
6093;SDS011;19964;42.060;24.700;2022-11-15T12:49:41;37.73;;;24.97;;
6093;SDS011;19964;42.060;24.700;2022-11-15T12:52:11;39.07;;;25.70;;
6093;SDS011;19964;42.060;24.700;2022-11-15T12:57:49;38.73;;;26.47;;
6093;SDS011;19964;42.060;24.700;2022-11-15T13:03:26;42.23;;;26.37;;
6093;SDS011;19964;42.060;24.700;2022-11-15T13:06:34;36.90;;;25.97;;
6093;SDS011;19964;42.060;24.700;2022-11-15T13:12:08;39.63;;;27.00;;
6093;SDS011;19964;42.060;24.700;2022-11-15T13:14:47;50.33;;;32.73;;
6093;SDS011;19964;42.060;24.700;2022-11-15T13:17:35;46.33;;;30.07;;
6093;SDS011;19964;42.060;24.700;2022-11-15T13:20:16;48.43;;;30.43;;
6093;SDS011;19964;42.060;24.700;2022-11-15T13:22:49;51.30;;;31.57;;
6093;SDS011;19964;42.060;24.700;2022-11-15T13:25:23;49.37;;;31.23;;
6093;SDS011;19964;42.060;24.700;2022-11-15T13:28:08;45.60;;;29.93;;
6093;SDS011;19964;42.060;24.700;2022-11-15T13:30:38;46.83;;;30.60;;
6093;SDS011;19964;42.060;24.700;2022-11-15T13:33:08;43.73;;;30.40;;
6093;SDS011;19964;42.060;24.700;2022-11-15T13:35:38;43.50;;;31.00;;
6093;SDS011;19964;42.060;24.700;2022-11-15T13:38:26;44.53;;;30.50;;
6093;SDS011;19964;42.060;24.700;2022-11-15T13:40:58;48.20;;;30.50;;
6093;SDS011;19964;42.060;24.700;2022-11-15T13:43:29;45.43;;;29.43;;
6093;SDS011;19964;42.060;24.700;2022-11-15T13:46:03;50.77;;;31.57;;
6093;SDS011;19964;42.060;24.700;2022-11-15T13:48:36;46.97;;;31.37;;
6093;SDS011;19964;42.060;24.700;2022-11-15T13:51:04;51.23;;;32.27;;
6093;SDS011;19964;42.060;24.700;2022-11-15T13:53:34;54.67;;;33.40;;
6093;SDS011;19964;42.060;24.700;2022-11-15T13:56:05;53.40;;;32.37;;
6093;SDS011;19964;42.060;24.700;2022-11-15T13:58:34;50.40;;;31.90;;
6093;SDS011;19964;42.060;24.700;2022-11-15T14:01:04;57.17;;;34.90;;
6093;SDS011;19964;42.060;24.700;2022-11-15T14:03:32;47.33;;;31.87;;
6093;SDS011;19964;42.060;24.700;2022-11-15T14:06:07;51.83;;;32.80;;
6093;SDS011;19964;42.060;24.700;2022-11-15T14:08:37;45.27;;;31.23;;
6093;SDS011;19964;42.060;24.700;2022-11-15T14:11:09;50.77;;;32.13;;
6093;SDS011;19964;42.060;24.700;2022-11-15T14:13:41;52.17;;;34.03;;
6093;SDS011;19964;42.060;24.700;2022-11-15T14:16:32;49.37;;;31.83;;
6093;SDS011;19964;42.060;24.700;2022-11-15T14:19:00;50.23;;;31.30;;
6093;SDS011;19964;42.060;24.700;2022-11-15T14:21:26;46.13;;;29.73;;
6093;SDS011;19964;42.060;24.700;2022-11-15T14:23:55;55.03;;;32.27;;
6093;SDS011;19964;42.060;24.700;2022-11-15T14:26:43;60.93;;;38.83;;
6093;SDS011;19964;42.060;24.700;2022-11-15T14:29:25;59.87;;;37.33;;
6093;SDS011;19964;42.060;24.700;2022-11-15T14:31:53;69.37;;;42.13;;
6093;SDS011;19964;42.060;24.700;2022-11-15T14:34:31;77.40;;;43.97;;
6093;SDS011;19964;42.060;24.700;2022-11-15T14:36:58;52.97;;;33.77;;
6093;SDS011;19964;42.060;24.700;2022-11-15T14:39:25;47.77;;;29.60;;
6093;SDS011;19964;42.060;24.700;2022-11-15T14:41:51;41.27;;;28.00;;
6093;SDS011;19964;42.060;24.700;2022-11-15T14:44:18;39.60;;;27.50;;
6093;SDS011;19964;42.060;24.700;2022-11-15T14:46:48;40.87;;;28.10;;
6093;SDS011;19964;42.060;24.700;2022-11-15T14:49:14;44.37;;;28.20;;
6093;SDS011;19964;42.060;24.700;2022-11-15T14:51:41;35.17;;;26.57;;
6093;SDS011;19964;42.060;24.700;2022-11-15T14:54:08;39.23;;;26.83;;
6093;SDS011;19964;42.060;24.700;2022-11-15T14:56:35;41.90;;;26.30;;
6093;SDS011;19964;42.060;24.700;2022-11-15T14:59:02;37.10;;;26.07;;
6093;SDS011;19964;42.060;24.700;2022-11-15T15:01:29;45.00;;;30.00;;